sensor_id;sensor_type;location;lat;lon;timestamp;pressure;altitude;pressure_sealevel;temperature;humidity
32873;BME280;19224;52.462;16.898;2022-11-20T00:00:00;99838.71;;;0.51;100.00
32873;BME280;19224;52.462;16.898;2022-11-20T00:02:30;99840.09;;;0.47;100.00
32873;BME280;19224;52.462;16.898;2022-11-20T00:05:01;99841.41;;;0.47;100.00
32873;BME280;19224;52.462;16.898;2022-11-20T00:07:31;99844.53;;;0.45;100.00
32873;BME280;19224;52.462;16.898;2022-11-20T00:10:01;99844.53;;;0.43;100.00
32873;BME280;19224;52.462;16.898;2022-11-20T00:12:32;99848.51;;;0.43;100.00
32873;BME280;19224;52.462;16.898;2022-11-20T00:15:03;99854.70;;;0.41;100.00
32873;BME280;19224;52.462;16.898;2022-11-20T00:17:34;99865.26;;;0.44;100.00
32873;BME280;19224;52.462;16.898;2022-11-20T00:20:05;99858.20;;;0.46;100.00
32873;BME280;19224;52.462;16.898;2022-11-20T00:22:35;99858.20;;;0.44;100.00
32873;BME280;19224;52.462;16.898;2022-11-20T00:25:06;99861.33;;;0.42;100.00
32873;BME280;19224;52.462;16.898;2022-11-20T00:27:37;99863.07;;;0.45;100.00
32873;BME280;19224;52.462;16.898;2022-11-20T00:30:08;99860.84;;;0.46;100.00
32873;BME280;19224;52.462;16.898;2022-11-20T00:32:39;99860.33;;;0.51;100.00
32873;BME280;19224;52.462;16.898;2022-11-20T00:35:09;99863.83;;;0.54;100.00
32873;BME280;19224;52.462;16.898;2022-11-20T00:37:39;99855.03;;;0.51;100.00
32873;BME280;19224;52.462;16.898;2022-11-20T00:40:11;99855.55;;;0.44;100.00
32873;BME280;19224;52.462;16.898;2022-11-20T00:42:41;99855.08;;;0.46;100.00
32873;BME280;19224;52.462;16.898;2022-11-20T00:45:12;99851.58;;;0.46;100.00
32873;BME280;19224;52.462;16.898;2022-11-20T00:47:42;99861.27;;;0.47;100.00
32873;BME280;19224;52.462;16.898;2022-11-20T00:50:12;99855.55;;;0.46;100.00
32873;BME280;19224;52.462;16.898;2022-11-20T00:52:43;99859.06;;;0.46;100.00
32873;BME280;19224;52.462;16.898;2022-11-20T00:55:13;99859.53;;;0.43;100.00
32873;BME280;19224;52.462;16.898;2022-11-20T00:57:44;99863.50;;;0.43;100.00
32873;BME280;19224;52.462;16.898;2022-11-20T01:00:17;99861.75;;;0.42;100.00
32873;BME280;19224;52.462;16.898;2022-11-20T01:02:47;99861.33;;;0.42;100.00
32873;BME280;19224;52.462;16.898;2022-11-20T01:05:17;99863.07;;;0.45;100.00
32873;BME280;19224;52.462;16.898;2022-11-20T01:07:48;99855.98;;;0.44;100.00
32873;BME280;19224;52.462;16.898;2022-11-20T01:10:18;99863.07;;;0.45;100.00
32873;BME280;19224;52.462;16.898;2022-11-20T01:12:48;99860.86;;;0.43;100.00
32873;BME280;19224;52.462;16.898;2022-11-20T01:15:20;99865.77;;;0.40;100.00
32873;BME280;19224;52.462;16.898;2022-11-20T01:17:51;99861.84;;;0.36;100.00
32873;BME280;19224;52.462;16.898;2022-11-20T01:20:21;99858.30;;;0.37;100.00
32873;BME280;19224;52.462;16.898;2022-11-20T01:22:51;99859.62;;;0.35;100.00
32873;BME280;19224;52.462;16.898;2022-11-20T01:25:22;99853.86;;;0.37;100.00
32873;BME280;19224;52.462;16.898;2022-11-20T01:27:52;99859.67;;;0.34;100.00
32873;BME280;19224;52.462;16.898;2022-11-20T01:30:23;99858.34;;;0.34;100.00
32873;BME280;19224;52.462;16.898;2022-11-20T01:32:54;99861.38;;;0.38;100.00
32873;BME280;19224;52.462;16.898;2022-11-20T01:35:25;99867.52;;;0.41;100.00
32873;BME280;19224;52.462;16.898;2022-11-20T01:37:55;99860.05;;;0.38;100.00
32873;BME280;19224;52.462;16.898;2022-11-20T01:40:25;99856.50;;;0.40;100.00
32873;BME280;19224;52.462;16.898;2022-11-20T01:43:06;99852.91;;;0.44;100.00
32873;BME280;19224;52.462;16.898;2022-11-20T01:46:17;99859.53;;;0.43;100.00
32873;BME280;19224;52.462;16.898;2022-11-20T01:49:20;99855.55;;;0.46;100.00
32873;BME280;19224;52.462;16.898;2022-11-20T01:51:57;99862.23;;;0.40;100.00
32873;BME280;19224;52.462;16.898;2022-11-20T01:54:30;99859.53;;;0.43;100.00
32873;BME280;19224;52.462;16.898;2022-11-20T01:57:01;99867.05;;;0.42;100.00
32873;BME280;19224;52.462;16.898;2022-11-20T01:59:32;99859.15;;;0.39;100.00
32873;BME280;19224;52.462;16.898;2022-11-20T02:02:03;99858.72;;;0.38;100.00
32873;BME280;19224;52.462;16.898;2022-11-20T02:04:35;99864.02;;;0.36;100.00
32873;BME280;19224;52.462;16.898;2022-11-20T02:07:06;99860.91;;;0.38;100.00
32873;BME280;19224;52.462;16.898;2022-11-20T02:09:38;99855.66;;;0.37;100.00
32873;BME280;19224;52.462;16.898;2022-11-20T02:12:08;99852.53;;;0.39;100.00
32873;BME280;19224;52.462;16.898;2022-11-20T02:14:40;99855.66;;;0.37;100.00
32873;BME280;19224;52.462;16.898;2022-11-20T02:17:11;99849.93;;;0.34;100.00
32873;BME280;19224;52.462;16.898;2022-11-20T02:19:41;99849.08;;;0.34;100.00
32873;BME280;19224;52.462;16.898;2022-11-20T02:22:35;99844.20;;;0.35;100.00
32873;BME280;19224;52.462;16.898;2022-11-20T02:25:06;99847.34;;;0.30;100.00
32873;BME280;19224;52.462;16.898;2022-11-20T02:27:37;99849.59;;;0.26;100.00
32873;BME280;19224;52.462;16.898;2022-11-20T02:30:09;99850.45;;;0.28;100.00
32873;BME280;19224;52.462;16.898;2022-11-20T02:32:40;99851.78;;;0.26;100.00
32873;BME280;19224;52.462;16.898;2022-11-20T02:37:54;99846.91;;;0.30;100.00
32873;BME280;19224;52.462;16.898;2022-11-20T02:40:25;99850.45;;;0.28;100.00
32873;BME280;19224;52.462;16.898;2022-11-20T02:42:57;99844.73;;;0.27;100.00
32873;BME280;19224;52.462;16.898;2022-11-20T02:45:27;99847.86;;;0.22;100.00
32873;BME280;19224;52.462;16.898;2022-11-20T02:47:58;99847.86;;;0.22;100.00
32873;BME280;19224;52.462;16.898;2022-11-20T02:50:28;99843.03;;;0.20;100.00
32873;BME280;19224;52.462;16.898;2022-11-20T02:52:59;99839.91;;;0.22;100.00
32873;BME280;19224;52.462;16.898;2022-11-20T02:55:29;99845.62;;;0.24;100.00
32873;BME280;19224;52.462;16.898;2022-11-20T02:58:00;99834.23;;;0.19;100.00
32873;BME280;19224;52.462;16.898;2022-11-20T03:00:30;99833.33;;;0.20;100.00
32873;BME280;19224;52.462;16.898;2022-11-20T03:03:01;99832.86;;;0.24;100.00
32873;BME280;19224;52.462;16.898;2022-11-20T03:05:32;99836.84;;;0.21;100.00
32873;BME280;19224;52.462;16.898;2022-11-20T03:08:02;99839.53;;;0.18;100.00
32873;BME280;19224;52.462;16.898;2022-11-20T03:10:32;99831.59;;;0.18;100.00
32873;BME280;19224;52.462;16.898;2022-11-20T03:13:02;99830.73;;;0.16;100.00
32873;BME280;19224;52.462;16.898;2022-11-20T03:15:33;99835.13;;;0.17;100.00
32873;BME280;19224;52.462;16.898;2022-11-20T03:18:04;99831.16;;;0.15;100.00
32873;BME280;19224;52.462;16.898;2022-11-20T03:20:35;99824.92;;;0.21;100.00
32873;BME280;19224;52.462;16.898;2022-11-20T03:23:06;99823.60;;;0.21;100.00
32873;BME280;19224;52.462;16.898;2022-11-20T03:25:36;99828.47;;;0.20;100.00
32873;BME280;19224;52.462;16.898;2022-11-20T03:28:06;99827.57;;;0.21;100.00
32873;BME280;19224;52.462;16.898;2022-11-20T03:30:36;99830.22;;;0.21;100.00
32873;BME280;19224;52.462;16.898;2022-11-20T03:33:06;99826.25;;;0.21;100.00
32873;BME280;19224;52.462;16.898;2022-11-20T03:35:37;99832.53;;;0.14;100.00
32873;BME280;19224;52.462;16.898;2022-11-20T03:38:07;99834.28;;;0.15;100.00
32873;BME280;19224;52.462;16.898;2022-11-20T03:40:37;99832.05;;;0.16;100.00
32873;BME280;19224;52.462;16.898;2022-11-20T03:43:09;99837.82;;;0.14;100.00
32873;BME280;19224;52.462;16.898;2022-11-20T03:45:39;99826.38;;;0.10;100.00
32873;BME280;19224;52.462;16.898;2022-11-20T03:48:10;99832.11;;;0.10;100.00
32873;BME280;19224;52.462;16.898;2022-11-20T03:50:40;99835.59;;;0.15;100.00
32873;BME280;19224;52.462;16.898;2022-11-20T03:53:10;99835.60;;;0.13;100.00
32873;BME280;19224;52.462;16.898;2022-11-20T03:55:41;99834.75;;;0.13;100.00
32873;BME280;19224;52.462;16.898;2022-11-20T03:58:11;99828.52;;;0.17;100.00
32873;BME280;19224;52.462;16.898;2022-11-20T04:00:42;99831.12;;;0.20;100.00
32873;BME280;19224;52.462;16.898;2022-11-20T04:03:12;99829.78;;;0.23;100.00
32873;BME280;19224;52.462;16.898;2022-11-20T04:05:42;99817.83;;;0.26;100.00
32873;BME280;19224;52.462;16.898;2022-11-20T04:08:13;99821.38;;;0.25;100.00
32873;BME280;19224;52.462;16.898;2022-11-20T04:10:43;99827.95;;;0.28;100.00
32873;BME280;19224;52.462;16.898;2022-11-20T04:13:13;99824.36;;;0.32;100.00
32873;BME280;19224;52.462;16.898;2022-11-20T04:15:43;99831.39;;;0.36;100.00
32873;BME280;19224;52.462;16.898;2022-11-20T04:18:14;99837.59;;;0.35;100.00
32873;BME280;19224;52.462;16.898;2022-11-20T04:20:44;99839.34;;;0.36;100.00
32873;BME280;19224;52.462;16.898;2022-11-20T04:23:14;99840.61;;;0.40;100.00
32873;BME280;19224;52.462;16.898;2022-11-20T04:25:45;99839.24;;;0.42;100.00
32873;BME280;19224;52.462;16.898;2022-11-20T04:28:15;99833.05;;;0.43;100.00
32873;BME280;19224;52.462;16.898;2022-11-20T04:30:46;99839.62;;;0.47;100.00
32873;BME280;19224;52.462;16.898;2022-11-20T04:33:16;99825.52;;;0.47;100.00
32873;BME280;19224;52.462;16.898;2022-11-20T04:35:48;99826.84;;;0.47;100.00
32873;BME280;19224;52.462;16.898;2022-11-20T04:38:18;99823.24;;;0.52;100.00
32873;BME280;19224;52.462;16.898;2022-11-20T04:40:49;99822.34;;;0.53;100.00
32873;BME280;19224;52.462;16.898;2022-11-20T04:43:19;99828.48;;;0.57;100.00
32873;BME280;19224;52.462;16.898;2022-11-20T04:45:57;99822.77;;;0.56;100.00
32873;BME280;19224;52.462;16.898;2022-11-20T04:48:29;99818.74;;;0.59;100.00
32873;BME280;19224;52.462;16.898;2022-11-20T04:51:03;99815.67;;;0.58;100.00
32873;BME280;19224;52.462;16.898;2022-11-20T04:53:33;99818.27;;;0.61;100.00
32873;BME280;19224;52.462;16.898;2022-11-20T04:56:07;99820.01;;;0.63;100.00
32873;BME280;19224;52.462;16.898;2022-11-20T04:58:38;99819.55;;;0.64;100.00
32873;BME280;19224;52.462;16.898;2022-11-20T05:01:21;99812.92;;;0.64;100.00
32873;BME280;19224;52.462;16.898;2022-11-20T05:03:52;99815.14;;;0.63;100.00
32873;BME280;19224;52.462;16.898;2022-11-20T05:06:23;99812.92;;;0.64;100.00
32873;BME280;19224;52.462;16.898;2022-11-20T05:08:53;99817.79;;;0.64;100.00
32873;BME280;19224;52.462;16.898;2022-11-20T05:11:23;99807.19;;;0.64;100.00
32873;BME280;19224;52.462;16.898;2022-11-20T05:13:54;99812.02;;;0.65;100.00
32873;BME280;19224;52.462;16.898;2022-11-20T05:16:25;99807.25;;;0.60;100.00
32873;BME280;19224;52.462;16.898;2022-11-20T05:18:56;99808.95;;;0.64;100.00
32873;BME280;19224;52.462;16.898;2022-11-20T05:21:26;99805.02;;;0.62;100.00
32873;BME280;19224;52.462;16.898;2022-11-20T05:23:56;99807.23;;;0.61;100.00
32873;BME280;19224;52.462;16.898;2022-11-20T05:26:27;99812.45;;;0.66;100.00
32873;BME280;19224;52.462;16.898;2022-11-20T05:28:57;99812.45;;;0.66;100.00
32873;BME280;19224;52.462;16.898;2022-11-20T05:31:27;99814.67;;;0.65;100.00
32873;BME280;19224;52.462;16.898;2022-11-20T05:33:58;99811.59;;;0.65;100.00
32873;BME280;19224;52.462;16.898;2022-11-20T05:36:28;99808.04;;;0.66;100.00
32873;BME280;19224;52.462;16.898;2022-11-20T05:39:00;99813.34;;;0.65;100.00
32873;BME280;19224;52.462;16.898;2022-11-20T05:41:32;99811.64;;;0.61;100.00
32873;BME280;19224;52.462;16.898;2022-11-20T05:44:03;99808.11;;;0.60;100.00
32873;BME280;19224;52.462;16.898;2022-11-20T05:46:33;99808.56;;;0.61;100.00
32873;BME280;19224;52.462;16.898;2022-11-20T05:49:03;99807.67;;;0.61;100.00
32873;BME280;19224;52.462;16.898;2022-11-20T05:51:34;99803.75;;;0.58;100.00
32873;BME280;19224;52.462;16.898;2022-11-20T05:54:04;99808.11;;;0.60;100.00
32873;BME280;19224;52.462;16.898;2022-11-20T05:56:35;99807.23;;;0.61;100.00
32873;BME280;19224;52.462;16.898;2022-11-20T05:59:05;99796.60;;;0.63;100.00
32873;BME280;19224;52.462;16.898;2022-11-20T06:01:35;99795.32;;;0.61;100.00
32873;BME280;19224;52.462;16.898;2022-11-20T06:04:06;99806.29;;;0.65;100.00
32873;BME280;19224;52.462;16.898;2022-11-20T06:06:36;99804.50;;;0.66;100.00
32873;BME280;19224;52.462;16.898;2022-11-20T06:09:06;99809.80;;;0.66;100.00
32873;BME280;19224;52.462;16.898;2022-11-20T06:11:36;99810.63;;;0.71;100.00
32873;BME280;19224;52.462;16.898;2022-11-20T06:14:07;99816.88;;;0.67;100.00
32873;BME280;19224;52.462;16.898;2022-11-20T06:16:38;99807.20;;;0.63;100.00
32873;BME280;19224;52.462;16.898;2022-11-20T06:19:08;99809.80;;;0.66;100.00
32873;BME280;19224;52.462;16.898;2022-11-20T06:21:38;99813.33;;;0.68;100.00
32873;BME280;19224;52.462;16.898;2022-11-20T06:24:10;99815.08;;;0.69;100.00
32873;BME280;19224;52.462;16.898;2022-11-20T06:26:41;99808.47;;;0.66;100.00
32873;BME280;19224;52.462;16.898;2022-11-20T06:29:11;99814.24;;;0.64;100.00
32873;BME280;19224;52.462;16.898;2022-11-20T06:31:41;99811.70;;;0.58;100.00
32873;BME280;19224;52.462;16.898;2022-11-20T06:34:12;99822.25;;;0.59;100.00
32873;BME280;19224;52.462;16.898;2022-11-20T06:36:42;99817.80;;;0.63;100.00
32873;BME280;19224;52.462;16.898;2022-11-20T06:39:12;99815.62;;;0.61;100.00
32873;BME280;19224;52.462;16.898;2022-11-20T06:41:42;99811.64;;;0.62;100.00
32873;BME280;19224;52.462;16.898;2022-11-20T06:44:13;99813.39;;;0.62;100.00
32873;BME280;19224;52.462;16.898;2022-11-20T06:46:43;99810.37;;;0.58;100.00
32873;BME280;19224;52.462;16.898;2022-11-20T06:49:14;99803.28;;;0.58;100.00
32873;BME280;19224;52.462;16.898;2022-11-20T06:51:44;99801.47;;;0.62;100.00
32873;BME280;19224;52.462;16.898;2022-11-20T06:54:14;99808.11;;;0.60;100.00
32873;BME280;19224;52.462;16.898;2022-11-20T06:56:47;99810.69;;;0.66;100.00
32873;BME280;19224;52.462;16.898;2022-11-20T06:59:17;99808.47;;;0.66;100.00
32873;BME280;19224;52.462;16.898;2022-11-20T07:01:48;99803.58;;;0.70;100.00
32873;BME280;19224;52.462;16.898;2022-11-20T07:04:18;99802.73;;;0.68;100.00
32873;BME280;19224;52.462;16.898;2022-11-20T07:06:49;99804.01;;;0.71;100.00
32873;BME280;19224;52.462;16.898;2022-11-20T07:09:19;99806.19;;;0.71;100.00
32873;BME280;19224;52.462;16.898;2022-11-20T07:11:50;99801.79;;;0.70;100.00
32873;BME280;19224;52.462;16.898;2022-11-20T07:14:20;99803.54;;;0.71;100.00
32873;BME280;19224;52.462;16.898;2022-11-20T07:16:50;99800.45;;;0.73;100.00
32873;BME280;19224;52.462;16.898;2022-11-20T07:19:21;99807.50;;;0.74;100.00
32873;BME280;19224;52.462;16.898;2022-11-20T07:21:52;99802.20;;;0.73;100.00
32873;BME280;19224;52.462;16.898;2022-11-20T07:24:22;99793.89;;;0.69;100.00
32873;BME280;19224;52.462;16.898;2022-11-20T07:26:53;99804.08;;;0.65;100.00
32873;BME280;19224;52.462;16.898;2022-11-20T07:29:23;99805.82;;;0.66;100.00
32873;BME280;19224;52.462;16.898;2022-11-20T07:31:53;99802.73;;;0.68;100.00
32873;BME280;19224;52.462;16.898;2022-11-20T07:34:25;99793.95;;;0.64;100.00
32873;BME280;19224;52.462;16.898;2022-11-20T07:36:55;99793.05;;;0.64;100.00
32873;BME280;19224;52.462;16.898;2022-11-20T07:39:26;99792.58;;;0.66;100.00
32873;BME280;19224;52.462;16.898;2022-11-20T07:41:56;99791.23;;;0.69;100.00
32873;BME280;19224;52.462;16.898;2022-11-20T07:44:26;99788.59;;;0.69;100.00
32873;BME280;19224;52.462;16.898;2022-11-20T07:46:56;99788.53;;;0.73;100.00
32873;BME280;19224;52.462;16.898;2022-11-20T07:49:27;99791.06;;;0.81;100.00
32873;BME280;19224;52.462;16.898;2022-11-20T07:51:57;99783.96;;;0.83;100.00
32873;BME280;19224;52.462;16.898;2022-11-20T07:54:27;99782.64;;;0.81;100.00
32873;BME280;19224;52.462;16.898;2022-11-20T07:56:57;99779.92;;;0.87;100.00
32873;BME280;19224;52.462;16.898;2022-11-20T07:59:27;99774.27;;;0.82;100.00
32873;BME280;19224;52.462;16.898;2022-11-20T08:01:58;99780.34;;;0.90;100.00
32873;BME280;19224;52.462;16.898;2022-11-20T08:04:28;99777.14;;;0.96;100.00
32873;BME280;19224;52.462;16.898;2022-11-20T08:06:58;99775.75;;;1.01;100.00
32873;BME280;19224;52.462;16.898;2022-11-20T08:09:29;99769.12;;;1.01;100.00
32873;BME280;19224;52.462;16.898;2022-11-20T08:11:59;99779.20;;;1.04;100.00
32873;BME280;19224;52.462;16.898;2022-11-20T08:14:47;99772.63;;;1.03;100.00
32873;BME280;19224;52.462;16.898;2022-11-20T08:17:17;99772.08;;;1.09;100.00
32873;BME280;19224;52.462;16.898;2022-11-20T08:19:48;99765.32;;;1.17;100.00
32873;BME280;19224;52.462;16.898;2022-11-20T08:22:18;99772.71;;;1.25;100.00
32873;BME280;19224;52.462;16.898;2022-11-20T08:24:49;99761.16;;;1.27;100.00
32873;BME280;19224;52.462;16.898;2022-11-20T08:27:20;99763.28;;;1.34;100.00
32873;BME280;19224;52.462;16.898;2022-11-20T08:29:50;99764.55;;;1.37;100.00
32873;BME280;19224;52.462;16.898;2022-11-20T08:32:20;99757.71;;;1.49;100.00
32873;BME280;19224;52.462;16.898;2022-11-20T08:34:51;99761.69;;;1.49;100.00
32873;BME280;19224;52.462;16.898;2022-11-20T08:37:21;99758.68;;;1.45;100.00
32873;BME280;19224;52.462;16.898;2022-11-20T08:39:52;99759.09;;;1.46;100.00
32873;BME280;19224;52.462;16.898;2022-11-20T08:42:23;99752.89;;;1.47;100.00
32873;BME280;19224;52.462;16.898;2022-11-20T08:44:53;99756.80;;;1.50;100.00
32873;BME280;19224;52.462;16.898;2022-11-20T08:47:23;99753.82;;;1.43;100.00
32873;BME280;19224;52.462;16.898;2022-11-20T08:49:53;99751.23;;;1.40;100.00
32873;BME280;19224;52.462;16.898;2022-11-20T08:52:24;99746.34;;;1.42;100.00
32873;BME280;19224;52.462;16.898;2022-11-20T08:54:54;99741.86;;;1.46;100.00
32873;BME280;19224;52.462;16.898;2022-11-20T08:57:24;99741.39;;;1.46;100.00
32873;BME280;19224;52.462;16.898;2022-11-20T08:59:55;99739.56;;;1.50;100.00
32873;BME280;19224;52.462;16.898;2022-11-20T09:02:25;99749.27;;;1.51;100.00
32873;BME280;19224;52.462;16.898;2022-11-20T09:04:56;99744.77;;;1.56;100.00
32873;BME280;19224;52.462;16.898;2022-11-20T09:07:27;99747.09;;;1.72;100.00
32873;BME280;19224;52.462;16.898;2022-11-20T09:09:57;99751.46;;;1.76;100.00
32873;BME280;19224;52.462;16.898;2022-11-20T09:12:27;99749.37;;;1.70;100.00
32873;BME280;19224;52.462;16.898;2022-11-20T09:14:58;99752.38;;;1.74;100.00
32873;BME280;19224;52.462;16.898;2022-11-20T09:17:28;99744.92;;;1.70;100.00
32873;BME280;19224;52.462;16.898;2022-11-20T09:19:59;99742.35;;;1.66;100.00
32873;BME280;19224;52.462;16.898;2022-11-20T09:22:29;99754.00;;;1.59;100.00
32873;BME280;19224;52.462;16.898;2022-11-20T09:25:00;99742.06;;;1.59;100.00
32873;BME280;19224;52.462;16.898;2022-11-20T09:27:30;99743.50;;;1.76;100.00
32873;BME280;19224;52.462;16.898;2022-11-20T09:30:01;99738.48;;;1.83;100.00
32873;BME280;19224;52.462;16.898;2022-11-20T09:32:31;99737.97;;;1.87;100.00
32873;BME280;19224;52.462;16.898;2022-11-20T09:35:01;99744.09;;;1.92;100.00
32873;BME280;19224;52.462;16.898;2022-11-20T09:37:32;99745.34;;;1.95;100.00
32873;BME280;19224;52.462;16.898;2022-11-20T09:40:03;99740.38;;;2.00;100.00
32873;BME280;19224;52.462;16.898;2022-11-20T09:45:56;99736.56;;;2.13;100.00
32873;BME280;19224;52.462;16.898;2022-11-20T09:49:02;99731.23;;;2.35;99.69
32873;BME280;19224;52.462;16.898;2022-11-20T09:52:06;99723.26;;;2.35;99.03
32873;BME280;19224;52.462;16.898;2022-11-20T09:54:37;99726.41;;;2.33;97.85
32873;BME280;19224;52.462;16.898;2022-11-20T09:57:20;99726.76;;;2.17;97.69
32873;BME280;19224;52.462;16.898;2022-11-20T10:00:02;99724.50;;;2.19;97.90
32873;BME280;19224;52.462;16.898;2022-11-20T10:05:39;99722.84;;;2.14;97.67
32873;BME280;19224;52.462;16.898;2022-11-20T10:08:22;99714.64;;;2.24;98.55
32873;BME280;19224;52.462;16.898;2022-11-20T10:11:08;99723.31;;;2.33;97.79
32873;BME280;19224;52.462;16.898;2022-11-20T10:14:20;99723.84;;;2.28;97.14
32873;BME280;19224;52.462;16.898;2022-11-20T10:20:30;99711.45;;;2.29;95.60
32873;BME280;19224;52.462;16.898;2022-11-20T10:25:18;99718.53;;;2.28;96.05
32873;BME280;19224;52.462;16.898;2022-11-20T10:28:22;99712.48;;;2.22;97.34
32873;BME280;19224;52.462;16.898;2022-11-20T10:31:06;99706.50;;;2.31;97.00
32873;BME280;19224;52.462;16.898;2022-11-20T10:33:41;99704.23;;;2.35;97.45
32873;BME280;19224;52.462;16.898;2022-11-20T10:36:23;99704.03;;;2.44;96.91
32873;BME280;19224;52.462;16.898;2022-11-20T10:39:06;99701.39;;;2.43;96.87
32873;BME280;19224;52.462;16.898;2022-11-20T10:41:42;99703.86;;;2.52;96.54
32873;BME280;19224;52.462;16.898;2022-11-20T10:44:22;99700.31;;;2.51;96.78
32873;BME280;19224;52.462;16.898;2022-11-20T10:47:22;99704.08;;;2.62;97.26
32873;BME280;19224;52.462;16.898;2022-11-20T10:49:57;99702.15;;;2.68;95.94
32873;BME280;19224;52.462;16.898;2022-11-20T10:56:37;99700.84;;;2.67;95.16
32873;BME280;19224;52.462;16.898;2022-11-20T10:58:42;99694.53;;;2.71;96.83
32873;BME280;19224;52.462;16.898;2022-11-20T11:01:19;99687.99;;;2.85;94.50
32873;BME280;19224;52.462;16.898;2022-11-20T11:03:56;99691.23;;;2.80;94.37
32873;BME280;19224;52.462;16.898;2022-11-20T11:06:43;99695.22;;;2.80;95.16
32873;BME280;19224;52.462;16.898;2022-11-20T11:09:17;99696.48;;;2.82;94.62
32873;BME280;19224;52.462;16.898;2022-11-20T11:11:48;99696.23;;;2.75;94.38
32873;BME280;19224;52.462;16.898;2022-11-20T11:14:18;99696.25;;;2.73;94.68
32873;BME280;19224;52.462;16.898;2022-11-20T11:16:57;99693.59;;;2.73;95.36
32873;BME280;19224;52.462;16.898;2022-11-20T11:19:28;99693.68;;;2.70;95.53
32873;BME280;19224;52.462;16.898;2022-11-20T11:21:58;99701.58;;;2.73;96.21
32873;BME280;19224;52.462;16.898;2022-11-20T11:24:30;99696.44;;;2.66;94.22
32873;BME280;19224;52.462;16.898;2022-11-20T11:27:10;99696.55;;;2.61;94.72
32873;BME280;19224;52.462;16.898;2022-11-20T11:29:36;99695.83;;;2.53;95.68
32873;BME280;19224;52.462;16.898;2022-11-20T11:32:22;99685.93;;;2.60;95.35
32873;BME280;19224;52.462;16.898;2022-11-20T11:35:29;99692.14;;;2.60;94.52
32873;BME280;19224;52.462;16.898;2022-11-20T11:37:39;99693.12;;;2.56;95.00
32873;BME280;19224;52.462;16.898;2022-11-20T11:40:12;99684.37;;;2.51;95.45
32873;BME280;19224;52.462;16.898;2022-11-20T11:42:49;99679.34;;;2.58;96.22
32873;BME280;19224;52.462;16.898;2022-11-20T11:45:17;99682.26;;;2.65;95.89
32873;BME280;19224;52.462;16.898;2022-11-20T11:47:48;99679.89;;;2.72;95.91
32873;BME280;19224;52.462;16.898;2022-11-20T11:50:23;99673.53;;;2.79;95.33
32873;BME280;19224;52.462;16.898;2022-11-20T11:53:17;99665.66;;;2.75;94.78
32873;BME280;19224;52.462;16.898;2022-11-20T11:55:57;99670.69;;;2.68;95.43
32873;BME280;19224;52.462;16.898;2022-11-20T11:58:51;99663.34;;;2.79;95.98
32873;BME280;19224;52.462;16.898;2022-11-20T12:01:36;99665.14;;;2.78;95.43
32873;BME280;19224;52.462;16.898;2022-11-20T12:04:43;99666.00;;;2.79;95.04
32873;BME280;19224;52.462;16.898;2022-11-20T12:07:36;99669.84;;;2.67;95.87
32873;BME280;19224;52.462;16.898;2022-11-20T12:10:21;99662.61;;;2.53;94.29
32873;BME280;19224;52.462;16.898;2022-11-20T12:13:02;99669.38;;;2.30;94.96
32873;BME280;19224;52.462;16.898;2022-11-20T12:15:35;99662.83;;;2.26;95.70
32873;BME280;19224;52.462;16.898;2022-11-20T12:18:20;99663.32;;;2.24;96.04
32873;BME280;19224;52.462;16.898;2022-11-20T12:30:19;99646.25;;;2.15;98.18
32873;BME280;19224;52.462;16.898;2022-11-20T12:33:19;99646.16;;;2.19;98.40
32873;BME280;19224;52.462;16.898;2022-11-20T12:39:24;99640.33;;;2.23;98.80
32873;BME280;19224;52.462;16.898;2022-11-20T12:45:17;99633.45;;;2.31;98.14
32873;BME280;19224;52.462;16.898;2022-11-20T12:50:46;99629.13;;;2.28;98.28
32873;BME280;19224;52.462;16.898;2022-11-20T12:53:40;99619.86;;;2.26;98.08
32873;BME280;19224;52.462;16.898;2022-11-20T13:07:43;99621.72;;;2.41;98.78
32873;BME280;19224;52.462;16.898;2022-11-20T13:10:31;99622.50;;;2.46;98.32
32873;BME280;19224;52.462;16.898;2022-11-20T13:13:04;99615.91;;;2.43;97.97
32873;BME280;19224;52.462;16.898;2022-11-20T13:18:27;99608.92;;;2.39;98.75
32873;BME280;19224;52.462;16.898;2022-11-20T13:20:59;99606.77;;;2.37;98.29
32873;BME280;19224;52.462;16.898;2022-11-20T13:23:30;99605.98;;;2.32;98.29
32873;BME280;19224;52.462;16.898;2022-11-20T13:26:13;99605.05;;;2.35;98.12
32873;BME280;19224;52.462;16.898;2022-11-20T13:28:38;99603.59;;;2.41;98.33
32873;BME280;19224;52.462;16.898;2022-11-20T13:31:29;99604.09;;;2.39;97.58
32873;BME280;19224;52.462;16.898;2022-11-20T13:34:03;99601.53;;;2.34;97.12
32873;BME280;19224;52.462;16.898;2022-11-20T13:36:34;99608.32;;;2.27;97.28
32873;BME280;19224;52.462;16.898;2022-11-20T13:39:05;99598.17;;;2.27;97.87
32873;BME280;19224;52.462;16.898;2022-11-20T13:41:37;99602.13;;;2.28;98.64
32873;BME280;19224;52.462;16.898;2022-11-20T13:44:37;99595.52;;;2.27;98.24
32873;BME280;19224;52.462;16.898;2022-11-20T13:46:52;99604.47;;;2.23;98.71
32873;BME280;19224;52.462;16.898;2022-11-20T13:49:31;99593.84;;;2.23;97.95
32873;BME280;19224;52.462;16.898;2022-11-20T13:55:02;99593.88;;;2.21;98.06
32873;BME280;19224;52.462;16.898;2022-11-20T13:57:42;99593.97;;;2.17;97.75
32873;BME280;19224;52.462;16.898;2022-11-20T14:00:17;99595.73;;;2.16;97.80
32873;BME280;19224;52.462;16.898;2022-11-20T14:03:09;99597.54;;;2.16;97.91
32873;BME280;19224;52.462;16.898;2022-11-20T14:05:55;99593.26;;;2.09;97.57
32873;BME280;19224;52.462;16.898;2022-11-20T14:08:36;99589.75;;;2.08;98.14
32873;BME280;19224;52.462;16.898;2022-11-20T14:14:04;99594.15;;;2.09;98.57
32873;BME280;19224;52.462;16.898;2022-11-20T14:16:37;99588.36;;;2.10;98.34
32873;BME280;19224;52.462;16.898;2022-11-20T14:19:28;99589.77;;;2.07;98.54
32873;BME280;19224;52.462;16.898;2022-11-20T14:24:48;99583.16;;;2.05;98.94